createdAt,value
2019-02-02T00:02:02.601Z,8.43
2019-02-02T00:04:31.625Z,7.47
2019-02-02T00:07:00.621Z,8.97
2019-02-02T00:09:29.808Z,6.50
2019-02-02T00:11:58.747Z,10.30
2019-02-02T00:14:27.922Z,7.50
2019-02-02T00:16:56.954Z,8.50
2019-02-02T00:19:26.075Z,6.83
2019-02-02T00:21:55.153Z,12.70
2019-02-02T00:24:24.174Z,7.50
2019-02-02T00:26:53.349Z,8.43
2019-02-02T00:29:22.562Z,8.40
2019-02-02T00:31:51.457Z,9.53
2019-02-02T00:34:20.655Z,8.10
2019-02-02T00:36:49.600Z,7.37
2019-02-02T00:39:18.707Z,11.90
2019-02-02T00:41:47.999Z,6.77
2019-02-02T00:44:17.176Z,10.73
2019-02-02T00:46:46.346Z,7.73
2019-02-02T00:49:19.822Z,5.80
2019-02-02T00:52:07.899Z,6.47
2019-02-02T00:54:36.686Z,8.07
2019-02-02T00:57:05.572Z,11.47
2019-02-02T00:59:34.457Z,9.27
2019-02-02T01:02:03.423Z,9.47
2019-02-02T01:04:32.294Z,7.50
2019-02-02T01:07:01.267Z,7.43
2019-02-02T01:09:30.206Z,8.87
2019-02-02T01:11:59.063Z,9.00
2019-02-02T01:14:28.022Z,9.00
2019-02-02T01:16:56.997Z,10.70
2019-02-02T01:19:25.806Z,8.33
2019-02-02T01:21:54.697Z,8.33
2019-02-02T01:24:23.591Z,9.07
2019-02-02T01:26:52.428Z,13.30
2019-02-02T01:29:21.240Z,7.97
2019-02-02T01:31:50.055Z,10.20
2019-02-02T01:34:18.958Z,7.03
2019-02-02T01:36:47.829Z,9.60
2019-02-02T01:39:16.661Z,10.43
2019-02-02T01:41:45.533Z,7.47
2019-02-02T01:44:14.457Z,9.10
2019-02-02T01:46:43.379Z,7.67
2019-02-02T01:49:12.369Z,8.77
2019-02-02T01:51:41.263Z,10.00
2019-02-02T01:54:10.130Z,8.90
2019-02-02T01:56:39.202Z,7.10
2019-02-02T01:59:08.007Z,7.87
2019-02-02T02:01:36.878Z,8.07
2019-02-02T02:04:05.696Z,8.17
2019-02-02T02:06:34.593Z,8.80
2019-02-02T02:09:04.442Z,9.20
2019-02-02T02:11:33.313Z,8.90
2019-02-02T02:14:02.278Z,8.50
2019-02-02T02:16:31.095Z,6.53
2019-02-02T02:19:00.009Z,11.00
2019-02-02T02:21:28.964Z,9.47
2019-02-02T02:23:57.808Z,7.60
2019-02-02T02:26:26.690Z,9.83
2019-02-02T02:28:55.593Z,9.10
2019-02-02T02:31:24.403Z,8.80
2019-02-02T02:33:53.225Z,9.60
2019-02-02T02:36:22.126Z,9.07
2019-02-02T02:38:51.030Z,10.60
2019-02-02T02:41:19.852Z,9.60
2019-02-02T02:43:48.895Z,7.90
2019-02-02T02:46:17.865Z,11.57
2019-02-02T02:48:46.739Z,8.97
2019-02-02T02:51:15.580Z,7.23
2019-02-02T02:53:44.537Z,7.97
2019-02-02T02:56:13.360Z,12.50
2019-02-02T02:58:42.316Z,8.60
2019-02-02T03:01:11.269Z,7.10
2019-02-02T03:03:40.170Z,10.20
2019-02-02T03:06:09.078Z,13.63
2019-02-02T03:08:37.886Z,9.73
2019-02-02T03:11:06.794Z,8.10
2019-02-02T03:13:35.822Z,8.07
2019-02-02T03:16:04.640Z,9.23
2019-02-02T03:18:33.588Z,9.97
2019-02-02T03:21:02.470Z,11.13
2019-02-02T03:23:31.275Z,7.93
2019-02-02T03:26:00.177Z,10.87
2019-02-02T03:28:29.073Z,8.87
2019-02-02T03:30:57.895Z,10.40
2019-02-02T03:33:26.703Z,9.03
2019-02-02T03:35:55.618Z,10.13
2019-02-02T03:38:24.447Z,7.90
2019-02-02T03:40:53.282Z,12.47
2019-02-02T03:43:22.318Z,10.33
2019-02-02T03:45:51.142Z,10.00
2019-02-02T03:48:20.036Z,10.73
2019-02-02T03:50:48.906Z,12.20
2019-02-02T03:53:17.749Z,8.63
2019-02-02T03:55:46.646Z,9.90
2019-02-02T03:58:15.602Z,10.83
2019-02-02T04:00:44.486Z,9.97
2019-02-02T04:03:13.366Z,11.90
2019-02-02T04:05:42.165Z,9.33
2019-02-02T04:08:11.098Z,8.00
2019-02-02T04:10:40.014Z,10.80
2019-02-02T04:13:14.890Z,10.33
2019-02-02T04:15:43.878Z,9.83
2019-02-02T04:18:12.695Z,9.37
2019-02-02T04:20:41.644Z,11.37
2019-02-02T04:23:10.451Z,11.03
2019-02-02T04:25:39.266Z,10.03
2019-02-02T04:28:08.232Z,9.47
2019-02-02T04:30:37.035Z,10.30
2019-02-02T04:33:05.876Z,10.33
2019-02-02T04:35:34.682Z,10.30
2019-02-02T04:38:03.550Z,9.03
2019-02-02T04:40:32.345Z,9.23
2019-02-02T04:43:01.887Z,9.17
2019-02-02T04:45:30.994Z,10.90
2019-02-02T04:47:59.884Z,10.00
2019-02-02T04:50:28.767Z,10.43
2019-02-02T04:52:57.666Z,10.07
2019-02-02T04:55:26.558Z,10.70
2019-02-02T04:57:55.354Z,9.80
2019-02-02T05:00:25.598Z,10.83
2019-02-02T05:02:54.582Z,10.77
2019-02-02T05:05:23.395Z,12.20
2019-02-02T05:07:52.270Z,14.77
2019-02-02T05:10:21.906Z,11.07
2019-02-02T05:12:50.867Z,9.57
2019-02-02T05:15:19.692Z,9.77
2019-02-02T05:17:48.567Z,9.50
2019-02-02T05:20:17.566Z,10.63
2019-02-02T05:22:46.522Z,10.97
2019-02-02T05:25:15.493Z,11.77
2019-02-02T05:27:44.318Z,11.07
2019-02-02T05:30:22.287Z,12.87
2019-02-02T05:32:51.277Z,14.60
2019-02-02T05:35:20.094Z,10.20
2019-02-02T05:37:48.995Z,9.40
2019-02-02T05:40:18.962Z,11.00
2019-02-02T05:42:47.925Z,12.03
2019-02-02T05:45:18.298Z,9.20
2019-02-02T05:47:47.105Z,11.73
2019-02-02T05:50:17.923Z,11.40
2019-02-02T05:52:46.742Z,15.77
2019-02-02T05:55:16.511Z,9.77
2019-02-02T05:57:45.462Z,11.73
2019-02-02T06:00:23.305Z,12.20
2019-02-02T06:02:52.153Z,10.37
2019-02-02T06:05:21.003Z,11.63
2019-02-02T06:07:49.819Z,10.80
2019-02-02T06:10:18.744Z,8.83
2019-02-02T06:12:47.618Z,10.63
2019-02-02T06:15:16.467Z,11.70
2019-02-02T06:17:45.422Z,10.40
2019-02-02T06:20:14.328Z,11.30
2019-02-02T06:22:43.285Z,14.60
2019-02-02T06:25:12.200Z,11.27
2019-02-02T06:27:41.086Z,9.77
2019-02-02T06:30:13.545Z,11.47
2019-02-02T06:33:01.933Z,12.43
2019-02-02T06:35:49.364Z,9.83
2019-02-02T06:41:38.078Z,10.93
2019-02-02T06:48:31.143Z,12.10
2019-02-02T06:51:00.481Z,12.67
2019-02-02T06:57:10.648Z,9.77
2019-02-02T06:59:39.981Z,11.00
2019-02-02T07:05:49.907Z,8.60
2019-02-02T07:08:19.215Z,11.70
2019-02-02T07:11:02.220Z,10.90
2019-02-02T07:17:00.244Z,12.27
2019-02-02T07:23:10.653Z,10.77
2019-02-02T07:25:39.985Z,12.47
2019-02-02T07:31:37.703Z,9.53
2019-02-02T07:34:06.922Z,12.80
2019-02-02T07:43:14.190Z,11.37
2019-02-02T07:46:01.391Z,13.40
2019-02-02T07:48:30.726Z,15.30
2019-02-02T07:50:59.996Z,11.07
2019-02-02T07:53:29.305Z,11.50
2019-02-02T07:55:59.142Z,10.40
2019-02-02T07:58:55.340Z,11.07
2019-02-02T08:01:24.640Z,12.90
2019-02-02T08:03:56.197Z,13.67
2019-02-02T08:06:26.118Z,12.27
2019-02-02T08:08:56.268Z,13.20
2019-02-02T08:11:25.496Z,13.23
2019-02-02T08:13:54.877Z,12.97
2019-02-02T08:16:26.180Z,14.07
2019-02-02T08:18:55.496Z,13.80
2019-02-02T08:21:25.018Z,14.27
2019-02-02T08:23:56.166Z,11.73
2019-02-02T08:26:49.469Z,11.10
2019-02-02T08:29:18.685Z,14.30
2019-02-02T08:31:57.837Z,15.57
2019-02-02T08:35:18.442Z,12.70
2019-02-02T08:38:12.414Z,13.80
2019-02-02T08:49:54.531Z,17.30
2019-02-02T08:53:12.534Z,14.50
2019-02-02T08:59:10.256Z,13.80
2019-02-02T09:01:40.535Z,14.40
2019-02-02T09:11:07.587Z,15.23
2019-02-02T09:17:17.837Z,15.33
2019-02-02T09:19:56.342Z,17.10
2019-02-02T09:25:56.387Z,15.87
2019-02-02T09:28:26.097Z,17.73
2019-02-02T09:31:15.979Z,19.10
2019-02-02T09:33:44.219Z,17.03
2019-02-02T09:36:37.335Z,19.80
2019-02-02T09:39:08.619Z,17.13
2019-02-02T09:41:56.315Z,16.83
2019-02-02T09:44:44.717Z,17.87
2019-02-02T09:47:14.137Z,18.97
2019-02-02T09:50:31.067Z,17.43
2019-02-02T09:53:00.406Z,16.07
2019-02-02T09:55:29.630Z,17.00
2019-02-02T09:58:31.379Z,21.13
2019-02-02T10:05:23.510Z,18.60
2019-02-02T10:08:30.564Z,20.17
2019-02-02T10:11:00.886Z,17.00
2019-02-02T10:13:30.268Z,19.40
2019-02-02T10:15:59.492Z,18.00
2019-02-02T10:18:28.843Z,22.13
2019-02-02T10:21:04.258Z,20.80
2019-02-02T10:23:34.135Z,16.07
2019-02-02T10:29:32.471Z,17.00
2019-02-02T10:35:30.513Z,21.30
2019-02-02T10:41:03.767Z,22.03
2019-02-02T10:43:33.143Z,20.30
2019-02-02T10:46:48.523Z,19.07
2019-02-02T10:50:17.486Z,20.00
2019-02-02T10:53:19.394Z,21.10
2019-02-02T10:55:48.744Z,18.00
2019-02-02T10:58:26.349Z,19.63
2019-02-02T11:01:59.510Z,21.07
2019-02-02T11:04:28.827Z,17.40
2019-02-02T11:07:31.527Z,18.87
2019-02-02T11:10:36.814Z,18.20
2019-02-02T11:16:34.334Z,18.30
2019-02-02T11:19:03.782Z,20.67
2019-02-02T11:22:06.593Z,21.50
2019-02-02T11:24:35.869Z,19.97
2019-02-02T11:28:17.536Z,20.33
2019-02-02T11:34:15.640Z,19.33
2019-02-02T11:36:44.870Z,20.10
2019-02-02T11:39:14.250Z,18.30
2019-02-02T11:41:44.206Z,23.00
2019-02-02T11:44:37.438Z,18.53
2019-02-02T11:47:48.690Z,20.17
2019-02-02T11:53:50.438Z,21.53
2019-02-02T11:56:19.931Z,21.47
2019-02-02T12:02:18.224Z,19.30
2019-02-02T12:04:47.653Z,22.60
2019-02-02T12:07:26.297Z,20.50
2019-02-02T12:13:23.827Z,20.77
2019-02-02T12:15:53.184Z,20.20
2019-02-02T12:18:50.088Z,20.67
2019-02-02T12:21:19.375Z,18.80
2019-02-02T12:23:48.867Z,20.37
2019-02-02T12:34:00.641Z,15.20
2019-02-02T12:36:30.652Z,15.97
2019-02-02T12:39:08.464Z,17.20
2019-02-02T12:41:37.725Z,15.10
2019-02-02T12:44:07.090Z,16.60
2019-02-02T12:46:37.500Z,13.53
2019-02-02T12:49:31.516Z,15.23
2019-02-02T12:55:29.420Z,15.40
2019-02-02T12:57:58.812Z,13.17
2019-02-02T13:04:01.794Z,14.20
2019-02-02T13:09:59.462Z,12.43
2019-02-02T13:12:28.793Z,13.20
2019-02-02T13:14:58.732Z,12.60
2019-02-02T13:17:38.357Z,13.10
2019-02-02T13:20:10.613Z,13.77
2019-02-02T13:26:08.313Z,12.00
2019-02-02T13:32:50.050Z,11.33
2019-02-02T13:35:15.080Z,13.37
2019-02-02T13:37:44.493Z,14.63
2019-02-02T13:40:16.564Z,12.20
2019-02-02T13:43:37.066Z,12.27
2019-02-02T13:46:06.291Z,13.10
2019-02-02T13:52:37.744Z,13.37
2019-02-02T13:55:14.849Z,12.80
2019-02-02T13:57:44.397Z,13.30
2019-02-02T14:00:55.002Z,13.53
2019-02-02T14:04:12.792Z,15.47
2019-02-02T14:10:24.871Z,13.60
2019-02-02T14:12:54.691Z,15.53
2019-02-02T14:16:12.692Z,16.40
2019-02-02T14:18:41.966Z,13.00
2019-02-02T14:21:14.593Z,14.07
2019-02-02T14:27:48.718Z,14.17
2019-02-02T14:30:22.340Z,13.50
2019-02-02T14:32:56.510Z,13.17
2019-02-02T14:35:27.112Z,13.50
2019-02-02T14:37:56.409Z,13.40
2019-02-02T14:48:12.679Z,13.53
2019-02-02T14:50:41.942Z,13.40
2019-02-02T14:53:11.256Z,12.70
2019-02-02T14:55:40.502Z,13.00
2019-02-02T14:58:09.934Z,13.97
2019-02-02T15:00:55.823Z,14.07
2019-02-02T15:03:32.445Z,14.13
2019-02-02T15:19:56.567Z,13.20
2019-02-02T15:22:26.028Z,14.60
2019-02-02T15:24:56.548Z,12.63
2019-02-02T15:30:54.343Z,13.23
2019-02-02T15:40:34.142Z,14.73
2019-02-02T15:44:09.764Z,14.63
2019-02-02T15:46:48.617Z,14.73
2019-02-02T15:49:10.131Z,16.00
2019-02-02T15:51:40.547Z,14.30
2019-02-02T15:57:51.026Z,15.47
2019-02-02T16:03:49.941Z,13.27
2019-02-02T16:09:48.186Z,15.40
2019-02-02T16:12:17.232Z,15.73
2019-02-02T16:14:46.147Z,14.50
2019-02-02T16:17:15.394Z,13.60
2019-02-02T16:19:44.478Z,14.30
2019-02-02T16:22:13.510Z,13.50
2019-02-02T16:24:42.328Z,15.20
2019-02-02T16:27:11.355Z,13.67
2019-02-02T16:29:40.256Z,13.73
2019-02-02T16:32:09.694Z,14.47
2019-02-02T16:34:38.524Z,13.17
2019-02-02T16:37:07.754Z,13.93
2019-02-02T16:39:36.631Z,13.17
2019-02-02T16:42:05.626Z,15.30
2019-02-02T16:44:34.756Z,13.27
2019-02-02T16:47:03.575Z,15.00
2019-02-02T16:49:32.526Z,14.13
2019-02-02T16:52:01.563Z,13.07
2019-02-02T16:54:30.394Z,15.83
2019-02-02T16:56:59.292Z,13.67
2019-02-02T16:59:28.250Z,16.13
2019-02-02T17:01:57.476Z,13.93
2019-02-02T17:04:26.647Z,15.47
2019-02-02T17:06:55.632Z,13.07
2019-02-02T17:09:24.771Z,16.00
2019-02-02T17:11:53.933Z,15.70
2019-02-02T17:14:23.021Z,15.70
2019-02-02T17:16:52.056Z,14.60
2019-02-02T17:19:21.154Z,17.77
2019-02-02T17:21:50.257Z,20.03
2019-02-02T17:24:19.343Z,17.07
2019-02-02T17:26:48.497Z,19.13
2019-02-02T17:29:20.501Z,20.00
2019-02-02T17:31:50.395Z,18.90
2019-02-02T17:34:26.889Z,19.80
2019-02-02T17:36:50.855Z,19.40
2019-02-02T17:39:20.156Z,19.13
2019-02-02T17:41:49.296Z,22.40
2019-02-02T17:44:18.341Z,22.17
2019-02-02T17:46:47.417Z,25.80
2019-02-02T17:49:16.466Z,23.43
2019-02-02T17:52:04.611Z,24.93
2019-02-02T17:54:33.428Z,22.20
2019-02-02T17:57:02.246Z,21.83
2019-02-02T17:59:31.162Z,24.93
2019-02-02T18:02:00.115Z,24.53
2019-02-02T18:04:39.222Z,25.90
2019-02-02T18:06:59.483Z,28.50
2019-02-02T18:09:28.325Z,23.90
2019-02-02T18:11:57.138Z,29.70
2019-02-02T18:14:26.042Z,24.83
2019-02-02T18:16:54.932Z,27.23
2019-02-02T18:19:23.829Z,26.90
2019-02-02T18:21:52.789Z,27.30
2019-02-02T18:24:31.892Z,28.03
2019-02-02T18:27:00.710Z,26.13
2019-02-02T18:29:29.602Z,29.73
2019-02-02T18:31:58.422Z,27.93
2019-02-02T18:34:27.232Z,30.40
2019-02-02T18:36:56.123Z,27.77
2019-02-02T18:39:24.982Z,29.90
2019-02-02T18:41:53.880Z,31.13
2019-02-02T18:44:22.698Z,27.83
2019-02-02T18:46:51.551Z,30.20
2019-02-02T18:49:20.442Z,33.80
2019-02-02T18:51:49.326Z,31.53
2019-02-02T18:54:18.214Z,35.90
2019-02-02T18:56:47.097Z,35.07
2019-02-02T18:59:15.999Z,34.73
2019-02-02T19:01:44.882Z,36.50
2019-02-02T19:04:13.790Z,33.87
2019-02-02T19:06:43.479Z,34.97
2019-02-02T19:09:12.743Z,32.10
2019-02-02T19:11:41.570Z,36.27
2019-02-02T19:14:10.535Z,36.63
2019-02-02T19:16:39.442Z,37.27
2019-02-02T19:19:08.391Z,34.23
2019-02-02T19:21:37.208Z,35.67
2019-02-02T19:24:09.045Z,38.63
2019-02-02T19:26:36.871Z,36.77
2019-02-02T19:29:05.762Z,36.37
2019-02-02T19:31:34.736Z,36.30
2019-02-02T19:34:03.667Z,38.03
2019-02-02T19:36:32.491Z,37.73
2019-02-02T19:39:01.407Z,34.97
2019-02-02T19:41:30.246Z,37.97
2019-02-02T19:43:59.136Z,37.30
2019-02-02T19:46:27.970Z,40.20
2019-02-02T19:48:59.822Z,37.73
2019-02-02T19:51:28.948Z,38.07
2019-02-02T19:53:57.930Z,37.17
2019-02-02T19:56:26.894Z,41.60
2019-02-02T19:58:55.740Z,36.97
2019-02-02T20:01:24.574Z,39.20
2019-02-02T20:03:53.706Z,40.70
2019-02-02T20:06:22.625Z,40.00
2019-02-02T20:08:51.589Z,40.57
2019-02-02T20:11:20.674Z,39.10
2019-02-02T20:13:49.516Z,39.07
2019-02-02T20:16:18.591Z,38.43
2019-02-02T20:18:50.539Z,41.57
2019-02-02T20:21:19.803Z,40.10
2019-02-02T20:23:48.806Z,45.80
2019-02-02T20:26:34.395Z,39.47
2019-02-02T20:29:03.487Z,40.73
2019-02-02T20:31:32.295Z,40.30
2019-02-02T20:34:01.282Z,39.90
2019-02-02T20:36:30.146Z,39.67
2019-02-02T20:38:59.002Z,42.00
2019-02-02T20:41:28.085Z,43.53
2019-02-02T20:43:57.055Z,40.00
2019-02-02T20:46:26.094Z,42.90
2019-02-02T20:48:54.981Z,37.63
2019-02-02T20:51:27.242Z,39.83
2019-02-02T20:53:56.138Z,42.57
2019-02-02T20:56:25.026Z,40.50
2019-02-02T20:58:54.011Z,43.90
2019-02-02T21:01:23.046Z,40.50
2019-02-02T21:03:52.029Z,34.20
2019-02-02T21:06:20.923Z,40.10
2019-02-02T21:09:08.376Z,39.30
2019-02-02T21:11:37.601Z,42.33
2019-02-02T21:14:06.690Z,40.47
2019-02-02T21:16:35.694Z,37.00
2019-02-02T21:19:05.074Z,38.27
2019-02-02T21:21:34.378Z,37.17
2019-02-02T21:24:03.409Z,40.60
2019-02-02T21:26:32.566Z,37.17
2019-02-02T21:29:01.603Z,38.00
2019-02-02T21:31:32.023Z,37.47
2019-02-02T21:34:01.018Z,38.60
2019-02-02T21:36:30.652Z,43.50
2019-02-02T21:38:59.563Z,40.50
2019-02-02T21:41:32.402Z,38.77
2019-02-02T21:44:01.573Z,38.57
2019-02-02T21:46:30.654Z,41.00
2019-02-02T21:49:02.691Z,35.53
2019-02-02T21:51:31.723Z,40.63
2019-02-02T21:54:00.807Z,37.60
2019-02-02T21:56:29.707Z,40.20
2019-02-02T21:58:59.123Z,39.10
2019-02-02T22:01:28.531Z,39.13
2019-02-02T22:04:00.943Z,36.90
2019-02-02T22:06:30.290Z,38.10
2019-02-02T22:08:59.380Z,37.77
2019-02-02T22:11:28.598Z,36.80
2019-02-02T22:13:57.583Z,35.87
2019-02-02T22:16:32.989Z,38.53
2019-02-02T22:19:02.062Z,37.93
2019-02-02T22:21:30.999Z,33.70
2019-02-02T22:24:00.170Z,32.60
2019-02-02T22:26:29.210Z,38.63
2019-02-02T22:28:58.287Z,35.73
2019-02-02T22:31:27.417Z,37.17
2019-02-02T22:33:56.557Z,37.23
2019-02-02T22:36:27.573Z,37.03
2019-02-02T22:38:56.362Z,38.43
2019-02-02T22:41:25.498Z,39.13
2019-02-02T22:43:54.482Z,38.90
2019-02-02T22:46:23.801Z,35.47
2019-02-02T22:48:52.814Z,35.90
2019-02-02T22:51:21.912Z,37.50
2019-02-02T22:53:50.946Z,37.60
2019-02-02T22:56:19.913Z,36.43
2019-02-02T22:58:49.051Z,33.13
2019-02-02T23:01:27.406Z,37.80
2019-02-02T23:04:33.625Z,35.27
2019-02-02T23:07:30.422Z,36.37
2019-02-02T23:10:39.606Z,38.83
2019-02-02T23:13:44.390Z,32.50
2019-02-02T23:16:25.166Z,37.33
2019-02-02T23:18:54.585Z,42.30
2019-02-02T23:21:24.331Z,38.40
2019-02-02T23:23:53.376Z,37.77
2019-02-02T23:26:22.269Z,39.70
2019-02-02T23:28:51.287Z,40.07
2019-02-02T23:31:20.266Z,38.10
2019-02-02T23:33:49.394Z,38.00
2019-02-02T23:37:03.471Z,37.13
2019-02-02T23:39:35.432Z,38.53
2019-02-02T23:42:04.379Z,40.77
2019-02-02T23:44:33.266Z,37.30
2019-02-02T23:47:02.242Z,38.80
2019-02-02T23:49:31.215Z,36.37
2019-02-02T23:52:00.106Z,37.40
2019-02-02T23:54:29.059Z,41.20
2019-02-02T23:56:57.963Z,40.00
2019-02-02T23:59:26.795Z,39.70
